METAR Data
IDs: Format: Raw Decoded Include TAF

Data at: 1850 UTC 12 Dec 2018

METAR for:KSGH (Springfield Muni, OH, US)
Text:KSGH 121756Z AUTO 21011KT 10SM CLR 06/M02 A2991 RMK AO2 SLP139 T00561017 10061 21006 56029
Temperature: 5.6°C ( 42°F)
Dewpoint: -1.7°C ( 29°F) [RH = 59%]
Pressure (altimeter):29.91 inches Hg (1013.0 mb) [Sea level pressure: 1013.9 mb]
Winds:from the SSW (210 degrees) at 13 MPH (11 knots; 5.7 m/s)
Visibility:10 or more sm (16+ km)
Ceiling:at least 12,000 feet AGL
Clouds:sky clear below 12,000 feet AGL
QC Flag:automated observation with no human augmentation